Date,TemperatureHighF,TemperatureAvgF,TemperatureLowF,DewpointHighF,DewpointAvgF,DewpointLowF,HumidityHigh,HumidityAvg,HumidityLow,PressureMaxIn,PressureMinIn,WindSpeedMaxMPH,WindSpeedAvgMPH,GustSpeedMaxMPH,PrecipitationSumIn
2013-5-3,69,57,45,38,33,26,71,44,22,29.97,29.93,9,0,13,3.88
2013-5-4,87,63,38,46,38,32,94,49,15,29.94,29.71,12,1,13,0.00
2013-5-5,78,64,51,50,43,35,67,47,32,30.01,29.83,17,2,17,0.00
2013-5-6,76,62,47,54,48,44,93,65,40,30.00,29.84,6,0,7,0.00
2013-5-7,89,69,48,58,52,46,97,61,27,29.93,29.77,12,1,12,0.00
2013-5-8,87,73,63,67,62,55,92,71,46,29.86,29.71,15,1,16,0.00
2013-5-9,78,71,66,70,67,63,97,87,75,29.81,29.69,10,1,13,0.04
2013-5-10,87,71,61,69,64,60,98,83,47,29.88,29.61,17,2,19,1.62
2013-5-11,80,70,61,64,58,49,98,69,37,29.98,29.83,17,2,19,1.62
2013-5-12,81,69,58,61,53,46,81,59,33,30.10,29.95,13,2,14,0.00
2013-5-13,87,69,50,60,53,44,97,60,31,30.11,29.99,10,0,11,0.00
2013-5-14,87,73,57,68,63,56,98,73,48,30.06,29.83,12,1,16,0.00
2013-5-15,85,74,66,75,69,64,98,85,66,29.93,29.66,16,2,21,0.09
2013-5-16,93,79,70,77,71,68,94,79,50,29.72,29.54,11,2,14,0.01
2013-5-17,93,81,74,77,72,69,90,76,54,29.72,29.61,17,2,18,0.00
2013-5-18,95,81,71,77,70,64,93,71,46,29.75,29.64,15,2,17,0.00
2013-5-19,93,81,72,77,71,66,90,72,49,29.68,29.55,16,2,17,0.00
2013-5-20,94,81,71,75,71,69,93,74,49,29.68,29.52,18,2,21,0.00
2013-5-21,92,80,69,76,71,63,90,77,56,29.73,29.51,19,2,20,0.00
2013-5-22,96,77,59,72,64,57,97,68,34,29.77,29.63,8,1,11,0.00
2013-5-23,91,81,74,75,72,70,92,76,55,29.87,29.70,13,1,13,0.00
2013-5-24,82,74,68,76,71,67,97,91,76,29.95,29.83,10,1,14,1.95
2013-5-25,79,73,68,75,71,68,99,94,80,29.98,29.87,14,1,14,0.32
2013-5-26,86,77,72,78,72,68,99,86,67,29.93,29.80,16,1,20,0.22
2013-5-27,90,78,69,76,71,68,97,81,57,29.86,29.67,12,1,18,0.00
2013-5-28,91,80,72,75,71,69,93,77,54,29.75,29.60,17,2,23,0.00
2013-5-29,88,78,73,77,72,70,90,81,62,29.71,29.55,16,3,21,0.00
2013-5-30,91,81,75,78,74,71,93,79,61,29.67,29.57,13,1,17,0.00
2013-5-31,92,82,76,80,75,72,91,79,62,29.70,29.57,12,1,15,0.00